createdAt,value
2019-01-11T00:00:15.327Z,101210.98
2019-01-11T00:02:46.902Z,101209.42
2019-01-11T00:05:18.422Z,101214.88
2019-01-11T00:07:50.070Z,101209.25
2019-01-11T00:10:21.774Z,101205.15
2019-01-11T00:12:53.310Z,101201.94
2019-01-11T00:15:25.065Z,101205.27
2019-01-11T00:17:56.737Z,101209.03
2019-01-11T00:20:27.497Z,101203.55
2019-01-11T00:22:59.300Z,101202.41
2019-01-11T00:25:30.833Z,101204.49
2019-01-11T00:28:02.625Z,101200.99
2019-01-11T00:30:34.385Z,101195.08
2019-01-11T00:33:06.009Z,101195.08
2019-01-11T00:35:37.778Z,101195.58
2019-01-11T00:38:08.609Z,101199.77
2019-01-11T00:40:40.758Z,101190.58
2019-01-11T00:43:15.032Z,101190.58
2019-01-11T00:45:44.871Z,101184.23
2019-01-11T00:48:16.724Z,101179.33
2019-01-11T00:50:47.944Z,101174.42
2019-01-11T00:53:19.768Z,101175.14
2019-01-11T00:55:50.502Z,101165.91
2019-01-11T00:58:22.310Z,101169.85
2019-01-11T01:01:13.413Z,101168.84
2019-01-11T01:03:45.030Z,101164.48
2019-01-11T01:06:16.749Z,101166.09
2019-01-11T01:08:47.502Z,101170.64
2019-01-11T01:11:19.303Z,101163.50
2019-01-11T01:13:50.890Z,101166.08
2019-01-11T01:16:22.611Z,101164.84
2019-01-11T01:18:54.395Z,101162.98
2019-01-11T01:21:26.056Z,101162.98
2019-01-11T01:23:57.791Z,101160.79
2019-01-11T01:26:28.707Z,101164.72
2019-01-11T01:28:59.653Z,101164.61
2019-01-11T01:31:31.365Z,101147.85
2019-01-11T01:34:03.065Z,101147.85
2019-01-11T01:36:34.742Z,101151.74
2019-01-11T01:39:15.261Z,101155.08
2019-01-11T01:41:46.828Z,101155.89
2019-01-11T01:44:18.568Z,101150.81
2019-01-11T01:46:50.345Z,101157.27
2019-01-11T01:49:26.509Z,101157.27
2019-01-11T01:51:55.658Z,101154.72
2019-01-11T01:54:27.389Z,101156.11
2019-01-11T01:56:59.072Z,101156.11
2019-01-11T01:59:31.000Z,101151.57
2019-01-11T02:02:02.737Z,101144.80
2019-01-11T02:04:33.455Z,101145.27
2019-01-11T02:07:05.065Z,101144.51
2019-01-11T02:09:37.263Z,101142.02
2019-01-11T02:12:08.989Z,101137.95
2019-01-11T02:14:41.053Z,101136.89
2019-01-11T02:17:13.589Z,101142.86
2019-01-11T02:19:45.308Z,101134.61
2019-01-11T02:22:16.864Z,101134.61
2019-01-11T02:24:48.761Z,101141.80
2019-01-11T02:27:19.354Z,101143.53
2019-01-11T02:29:51.015Z,101147.94
2019-01-11T02:32:22.794Z,101142.94
2019-01-11T02:34:53.475Z,101143.33
2019-01-11T02:37:25.303Z,101137.73
2019-01-11T02:39:57.070Z,101137.06
2019-01-11T02:42:28.847Z,101135.41
2019-01-11T02:45:00.600Z,101134.31
2019-01-11T02:47:32.333Z,101133.76
2019-01-11T02:50:03.995Z,101133.76
2019-01-11T02:52:35.767Z,101122.25
2019-01-11T02:55:07.423Z,101115.43
2019-01-11T02:57:39.302Z,101113.36
2019-01-11T03:00:19.647Z,101110.65
2019-01-11T03:02:51.340Z,101105.10
2019-01-11T03:05:23.381Z,101105.10
2019-01-11T03:07:55.303Z,101103.96
2019-01-11T03:10:26.877Z,101100.45
2019-01-11T03:12:58.590Z,101106.50
2019-01-11T03:15:30.386Z,101097.66
2019-01-11T03:18:02.066Z,101097.66
2019-01-11T03:20:33.905Z,101095.63
2019-01-11T03:23:05.350Z,101087.55
2019-01-11T03:25:37.061Z,101091.05
2019-01-11T03:28:08.757Z,101093.94
2019-01-11T03:30:39.496Z,101084.84
2019-01-11T03:33:11.517Z,101076.80
2019-01-11T03:35:43.316Z,101076.80
2019-01-11T03:38:15.309Z,101075.99
2019-01-11T03:40:46.875Z,101071.16
2019-01-11T03:43:18.426Z,101073.16
2019-01-11T03:45:50.068Z,101070.52
2019-01-11T03:48:21.753Z,101065.45
2019-01-11T03:50:52.640Z,101064.02
2019-01-11T03:53:24.386Z,101066.01
2019-01-11T03:55:56.396Z,101066.01
2019-01-11T03:58:28.298Z,101057.95
2019-01-11T04:00:59.914Z,101056.60
2019-01-11T04:03:31.339Z,101054.99
2019-01-11T04:06:03.308Z,101048.52
2019-01-11T04:08:35.306Z,101054.48
2019-01-11T04:11:06.904Z,101053.98
2019-01-11T04:13:38.758Z,101046.06
2019-01-11T04:16:10.376Z,101043.13
2019-01-11T04:18:52.381Z,101040.30
2019-01-11T04:21:24.315Z,101036.08
2019-01-11T04:23:55.906Z,101031.72
2019-01-11T04:26:27.753Z,101028.33
2019-01-11T04:28:58.452Z,101024.19
2019-01-11T04:31:30.065Z,101018.31
2019-01-11T04:34:01.792Z,101013.05
2019-01-11T04:36:32.486Z,101009.84
2019-01-11T04:39:06.335Z,101013.26
2019-01-11T04:41:37.916Z,101010.20
2019-01-11T04:44:09.731Z,101002.27
2019-01-11T04:46:40.497Z,101007.52
2019-01-11T04:49:12.308Z,101001.28
2019-01-11T04:51:43.868Z,101000.77
2019-01-11T04:54:15.393Z,100999.48
2019-01-11T04:56:47.020Z,100993.58
2019-01-11T04:59:18.746Z,100996.50
2019-01-11T05:01:49.505Z,100987.48
2019-01-11T05:04:21.324Z,100990.53
2019-01-11T05:06:52.928Z,100981.39
2019-01-11T05:09:24.421Z,100987.27
2019-01-11T05:11:56.306Z,100986.56
2019-01-11T05:17:10.987Z,100978.85
2019-01-11T05:19:43.592Z,100975.09
2019-01-11T05:22:15.364Z,100967.17
2019-01-11T05:24:47.070Z,100967.17
2019-01-11T05:27:18.772Z,100966.49
2019-01-11T05:29:49.775Z,100967.09
2019-01-11T05:32:21.522Z,100955.66
2019-01-11T05:34:53.315Z,100959.04
2019-01-11T05:37:24.852Z,100956.97
2019-01-11T05:39:56.603Z,100956.67
2019-01-11T05:42:28.410Z,100934.02
2019-01-11T05:45:00.215Z,100934.02
2019-01-11T05:47:31.942Z,100937.50
2019-01-11T05:50:03.773Z,100935.94
2019-01-11T05:52:35.116Z,100936.05
2019-01-11T05:55:08.794Z,100924.48
2019-01-11T05:57:43.280Z,100922.34
2019-01-11T06:00:15.070Z,100913.61
2019-01-11T06:02:46.776Z,100910.14
2019-01-11T06:05:17.474Z,100914.31
2019-01-11T06:07:55.774Z,100909.90
2019-01-11T06:10:26.502Z,100904.31
2019-01-11T06:12:58.313Z,100904.83
2019-01-11T06:15:29.856Z,100900.45
2019-01-11T06:18:01.456Z,100894.87
2019-01-11T06:20:33.318Z,100897.55
2019-01-11T06:23:04.993Z,100893.48
2019-01-11T06:25:36.753Z,100890.07
2019-01-11T06:28:07.458Z,100892.27
2019-01-11T06:30:39.081Z,100880.79
2019-01-11T06:33:10.971Z,100879.27
2019-01-11T06:35:43.073Z,100879.27
2019-01-11T06:38:14.765Z,100879.12
2019-01-11T06:40:45.496Z,100872.96
2019-01-11T06:43:17.318Z,100873.30
2019-01-11T06:45:48.899Z,100876.07
2019-01-11T06:48:51.740Z,100872.66
2019-01-11T06:51:22.454Z,100873.77
2019-01-11T06:53:54.317Z,100876.92
2019-01-11T06:56:25.827Z,100871.14
2019-01-11T06:58:57.649Z,100872.89
2019-01-11T07:01:29.386Z,100863.41
2019-01-11T07:04:01.069Z,100863.41
2019-01-11T07:06:32.768Z,100871.61
2019-01-11T07:09:04.568Z,100862.94
2019-01-11T07:11:36.309Z,100862.62
2019-01-11T07:14:08.309Z,100862.62
2019-01-11T07:16:39.857Z,100864.09
2019-01-11T07:19:11.647Z,100866.83
2019-01-11T07:21:43.857Z,100868.92
2019-01-11T07:24:15.442Z,100868.92
2019-01-11T07:26:47.642Z,100872.52
2019-01-11T07:29:19.544Z,100859.22
2019-01-11T07:31:51.315Z,100859.22
2019-01-11T07:34:22.904Z,100867.94
2019-01-11T07:36:56.275Z,100865.38
2019-01-11T07:39:36.877Z,100859.81
2019-01-11T07:42:08.757Z,100854.84
2019-01-11T07:44:39.491Z,100856.36
2019-01-11T07:47:11.264Z,100847.84
2019-01-11T07:49:42.817Z,100856.20
2019-01-11T07:52:14.400Z,100844.92
2019-01-11T07:54:46.071Z,100848.79
2019-01-11T07:57:17.804Z,100847.97
2019-01-11T07:59:49.703Z,100846.00
2019-01-11T08:02:21.365Z,100843.09
2019-01-11T08:04:53.080Z,100844.45
2019-01-11T08:07:24.711Z,100834.18
2019-01-11T08:09:55.491Z,100840.16
2019-01-11T08:12:27.318Z,100838.29
2019-01-11T08:14:59.368Z,100831.86
2019-01-11T08:17:31.077Z,100822.09
2019-01-11T08:20:02.773Z,100814.81
2019-01-11T08:22:43.298Z,100821.22
2019-01-11T08:25:15.785Z,100815.60
2019-01-11T08:27:47.386Z,100816.31
2019-01-11T08:30:19.074Z,100804.62
2019-01-11T08:32:51.313Z,100802.23
2019-01-11T08:35:22.887Z,100795.66
2019-01-11T08:37:54.394Z,100799.07
2019-01-11T08:40:26.070Z,100798.30
2019-01-11T08:42:57.756Z,100791.22
2019-01-11T08:45:29.380Z,100793.65
2019-01-11T08:48:01.049Z,100791.28
2019-01-11T08:50:32.737Z,100794.19
2019-01-11T08:53:04.384Z,100785.55
2019-01-11T08:55:36.263Z,100790.77
2019-01-11T08:58:07.892Z,100790.63
2019-01-11T09:00:39.757Z,100781.86
2019-01-11T09:03:11.414Z,100778.83
2019-01-11T09:05:43.299Z,100788.26
2019-01-11T09:08:14.879Z,100785.80
2019-01-11T09:10:46.737Z,100788.56
2019-01-11T09:13:17.883Z,100789.39
2019-01-11T09:15:50.305Z,100796.36
2019-01-11T09:18:30.841Z,100792.38
2019-01-11T09:21:09.181Z,100795.06
2019-01-11T09:23:36.315Z,100788.91
2019-01-11T09:26:08.262Z,100788.91
2019-01-11T09:28:41.674Z,100791.34
2019-01-11T09:31:15.003Z,100793.42
2019-01-11T09:33:46.756Z,100793.42
2019-01-11T09:36:17.548Z,100804.41
2019-01-11T09:38:49.379Z,100785.23
2019-01-11T09:41:21.284Z,100785.23
2019-01-11T09:43:52.834Z,100785.55
2019-01-11T09:46:24.657Z,100787.92
2019-01-11T09:48:56.362Z,100778.07
2019-01-11T09:51:28.072Z,100778.07
2019-01-11T09:53:59.757Z,100777.79
2019-01-11T09:56:30.479Z,100782.64
2019-01-11T09:59:02.505Z,100779.82
2019-01-11T10:01:34.330Z,100759.10
2019-01-11T10:04:05.898Z,100759.10
2019-01-11T10:06:41.589Z,100764.77
2019-01-11T10:09:13.626Z,100756.78
2019-01-11T10:11:45.378Z,100763.81
2019-01-11T10:14:17.057Z,100763.81
2019-01-11T10:16:48.770Z,100760.64
2019-01-11T10:19:19.483Z,100750.80
2019-01-11T10:21:52.533Z,100758.02
2019-01-11T10:24:24.749Z,100746.58
2019-01-11T10:26:55.466Z,100746.58
2019-01-11T10:29:27.262Z,100739.73
2019-01-11T10:31:58.885Z,100733.30
2019-01-11T10:34:30.398Z,100738.02
2019-01-11T10:37:02.339Z,100737.63
2019-01-11T10:39:34.420Z,100736.54
2019-01-11T10:42:06.109Z,100729.11
2019-01-11T10:44:37.777Z,100731.44
2019-01-11T10:47:08.485Z,100723.95
2019-01-11T10:49:40.620Z,100723.23
2019-01-11T10:52:12.381Z,100720.98
2019-01-11T10:54:44.696Z,100720.98
2019-01-11T10:57:16.379Z,100715.81
2019-01-11T10:59:48.057Z,100710.78
2019-01-11T11:02:19.809Z,100707.22
2019-01-11T11:04:51.630Z,100696.59
2019-01-11T11:07:23.344Z,100680.60
2019-01-11T11:09:54.819Z,100680.60
2019-01-11T11:12:26.742Z,100680.19
2019-01-11T11:14:57.492Z,100682.07
2019-01-11T11:17:29.262Z,100681.92
2019-01-11T11:20:00.855Z,100681.08
2019-01-11T11:22:32.434Z,100665.66
2019-01-11T11:25:05.310Z,100656.18
2019-01-11T11:27:36.857Z,100651.27
2019-01-11T11:30:11.296Z,100647.22
2019-01-11T11:33:07.623Z,100643.85
2019-01-11T11:35:39.361Z,100629.28
2019-01-11T11:38:11.045Z,100629.28
2019-01-11T11:40:42.748Z,100631.19
2019-01-11T11:43:13.475Z,100624.55
2019-01-11T11:45:45.298Z,100623.48
2019-01-11T11:48:16.833Z,100620.44
2019-01-11T11:50:48.596Z,100615.48
2019-01-11T11:53:20.364Z,100618.70
2019-01-11T11:55:52.294Z,100618.70
2019-01-11T11:58:23.854Z,100613.80
2019-01-11T12:00:55.602Z,100620.20
2019-01-11T12:03:27.223Z,100619.16
2019-01-11T12:05:59.249Z,100614.07
2019-01-11T12:08:30.887Z,100615.11
2019-01-11T12:11:02.409Z,100606.84
2019-01-11T12:13:34.730Z,100605.20
2019-01-11T12:16:07.268Z,100595.91
2019-01-11T12:18:39.298Z,100602.31
2019-01-11T12:21:10.831Z,100592.54
2019-01-11T12:23:42.614Z,100592.39
2019-01-11T12:26:14.373Z,100569.55
2019-01-11T12:28:46.079Z,100569.55
2019-01-11T12:31:17.774Z,100568.05
2019-01-11T12:33:48.641Z,100561.93
2019-01-11T12:36:20.537Z,100559.22
2019-01-11T12:38:52.585Z,100561.45
2019-01-11T12:41:24.485Z,100543.47
2019-01-11T12:43:56.300Z,100543.47
2019-01-11T12:46:27.804Z,100544.64
2019-01-11T12:48:59.719Z,100546.36
2019-01-11T12:51:30.436Z,100538.52
2019-01-11T12:54:02.333Z,100529.03
2019-01-11T12:56:34.112Z,100518.73
2019-01-11T12:59:05.799Z,100508.41
2019-01-11T13:01:36.459Z,100509.36
2019-01-11T13:04:08.303Z,100505.98
2019-01-11T13:06:40.592Z,100511.27
2019-01-11T13:09:12.377Z,100500.09
2019-01-11T13:11:44.326Z,100500.09
2019-01-11T13:14:15.856Z,100499.09
2019-01-11T13:16:47.422Z,100496.69
2019-01-11T13:19:19.297Z,100490.42
2019-01-11T13:21:50.850Z,100491.11
2019-01-11T13:24:22.389Z,100490.63
2019-01-11T13:26:53.986Z,100488.61
2019-01-11T13:29:25.763Z,100479.97
2019-01-11T13:31:57.369Z,100488.25
2019-01-11T13:34:29.023Z,100482.98
2019-01-11T13:37:00.756Z,100482.31
2019-01-11T13:39:31.490Z,100480.12
2019-01-11T13:42:03.301Z,100477.23
2019-01-11T13:44:35.306Z,100481.30
2019-01-11T13:47:06.821Z,100472.47
2019-01-11T13:49:38.592Z,100474.30
2019-01-11T13:52:10.358Z,100472.65
2019-01-11T13:54:42.300Z,100472.65
2019-01-11T13:57:13.813Z,100465.00
2019-01-11T13:59:45.509Z,100469.25
2019-01-11T14:02:17.306Z,100463.49
2019-01-11T14:04:48.891Z,100462.32
2019-01-11T14:07:20.773Z,100458.91
2019-01-11T14:09:51.481Z,100454.84
2019-01-11T14:12:23.262Z,100453.31
2019-01-11T14:14:54.880Z,100455.03
2019-01-11T14:17:26.599Z,100450.09
2019-01-11T14:19:58.340Z,100448.41
2019-01-11T14:22:30.066Z,100441.95
2019-01-11T14:25:02.774Z,100438.07
2019-01-11T14:27:33.490Z,100441.11
2019-01-11T14:30:05.804Z,100432.98
2019-01-11T14:32:36.462Z,100434.34
2019-01-11T14:35:09.765Z,100434.03
2019-01-11T14:37:40.443Z,100433.34
2019-01-11T14:40:15.307Z,100428.94
2019-01-11T14:42:46.881Z,100426.72
2019-01-11T14:45:19.364Z,100429.45
2019-01-11T14:47:51.306Z,100416.23
2019-01-11T14:50:22.919Z,100411.47
2019-01-11T14:52:54.623Z,100412.52
2019-01-11T14:55:26.266Z,100423.16
2019-01-11T14:57:57.459Z,100414.19
2019-01-11T15:00:29.301Z,100412.52
2019-01-11T15:03:01.271Z,100416.41
2019-01-11T15:05:32.852Z,100410.27
2019-01-11T15:08:04.629Z,100414.84
2019-01-11T15:10:36.342Z,100387.81
2019-01-11T15:13:08.314Z,100387.81
2019-01-11T15:15:40.033Z,100403.30
2019-01-11T15:18:11.747Z,100410.20
2019-01-11T15:20:43.380Z,100399.44
2019-01-11T15:23:15.073Z,100401.59
2019-01-11T15:25:46.748Z,100413.60
2019-01-11T15:28:17.487Z,100408.19
2019-01-11T15:30:49.301Z,100405.10
2019-01-11T15:33:20.874Z,100401.23
2019-01-11T15:35:52.380Z,100400.44
2019-01-11T15:38:24.309Z,100400.64
2019-01-11T15:40:56.067Z,100398.61
2019-01-11T15:43:27.735Z,100400.80
2019-01-11T15:46:05.610Z,100400.30
2019-01-11T15:48:51.705Z,100398.82
2019-01-11T15:51:29.273Z,100398.82
2019-01-11T15:54:02.858Z,100398.38
2019-01-11T15:56:34.391Z,100395.34
2019-01-11T15:59:06.049Z,100397.70
2019-01-11T16:01:37.752Z,100392.79
2019-01-11T16:04:09.284Z,100391.47
2019-01-11T16:06:43.797Z,100397.39
2019-01-11T16:10:05.769Z,100388.78
2019-01-11T16:13:20.355Z,100392.38
2019-01-11T16:16:53.889Z,100382.38
2019-01-11T16:19:25.404Z,100386.29
2019-01-11T16:21:57.072Z,100384.43
2019-01-11T16:24:28.781Z,100388.81
2019-01-11T16:26:59.496Z,100383.55
2019-01-11T16:29:31.313Z,100380.69
2019-01-11T16:32:02.869Z,100379.00
2019-01-11T16:34:34.430Z,100377.84
2019-01-11T16:37:08.883Z,100373.96
2019-01-11T16:39:39.770Z,100379.41
2019-01-11T16:42:10.783Z,100379.72
2019-01-11T16:44:42.541Z,100376.98
2019-01-11T16:47:14.304Z,100371.86
2019-01-11T16:49:45.848Z,100371.86
2019-01-11T16:52:18.295Z,100377.14
2019-01-11T16:54:50.258Z,100370.52
2019-01-11T16:57:21.917Z,100376.34
2019-01-11T16:59:53.716Z,100370.91
2019-01-11T17:02:24.450Z,100366.78
2019-01-11T17:04:56.666Z,100371.64
2019-01-11T17:07:27.646Z,100368.48
2019-01-11T17:09:59.359Z,100368.05
2019-01-11T17:12:31.069Z,100368.05
2019-01-11T17:15:02.799Z,100370.92
2019-01-11T17:17:34.495Z,100367.69
2019-01-11T17:20:07.808Z,100365.20
2019-01-11T17:22:39.611Z,100366.76
2019-01-11T17:25:11.324Z,100356.56
2019-01-11T17:27:43.366Z,100356.56
2019-01-11T17:30:20.302Z,100355.76
2019-01-11T17:32:52.055Z,100356.95
2019-01-11T17:35:23.740Z,100370.69
2019-01-11T17:37:54.462Z,100368.13
2019-01-11T17:40:26.378Z,100367.78
2019-01-11T17:42:58.068Z,100371.34
2019-01-11T17:45:29.738Z,100368.79
2019-01-11T17:48:00.571Z,100375.09
2019-01-11T17:50:32.764Z,100373.56
2019-01-11T17:53:04.398Z,100373.56
2019-01-11T17:55:36.315Z,100366.61
2019-01-11T17:58:08.272Z,100375.97
2019-01-11T18:00:41.474Z,100371.91
2019-01-11T18:03:13.065Z,100369.72
2019-01-11T18:05:44.749Z,100371.94
2019-01-11T18:08:16.377Z,100379.05
2019-01-11T18:10:48.045Z,100375.17
2019-01-11T18:13:19.870Z,100366.16
2019-01-11T18:15:51.411Z,100367.13
2019-01-11T18:18:23.116Z,100370.67
2019-01-11T18:20:54.753Z,100366.08
2019-01-11T18:23:25.506Z,100370.95
2019-01-11T18:25:57.664Z,100368.40
2019-01-11T18:28:29.389Z,100370.04
2019-01-11T18:31:00.895Z,100370.04
2019-01-11T18:33:32.434Z,100370.04
2019-01-11T18:36:04.318Z,100372.20
2019-01-11T18:38:35.892Z,100364.61
2019-01-11T18:41:07.741Z,100368.72
2019-01-11T18:43:38.636Z,100367.41
2019-01-11T18:46:10.776Z,100346.44
2019-01-11T18:48:42.406Z,100346.44
2019-01-11T18:51:14.062Z,100366.64
2019-01-11T18:53:45.902Z,100370.22
2019-01-11T18:56:17.402Z,100374.82
2019-01-11T18:58:49.056Z,100367.17
2019-01-11T19:01:20.744Z,100372.61
2019-01-11T19:03:51.447Z,100371.27
2019-01-11T19:06:23.315Z,100366.19
2019-01-11T19:08:54.853Z,100367.19
2019-01-11T19:11:26.589Z,100365.30
2019-01-11T19:13:58.309Z,100348.22
2019-01-11T19:16:29.853Z,100348.22
2019-01-11T19:19:01.393Z,100369.24
2019-01-11T19:21:33.366Z,100362.11
2019-01-11T19:24:05.314Z,100379.02
2019-01-11T19:26:36.864Z,100370.50
2019-01-11T19:29:08.426Z,100366.28
2019-01-11T19:31:40.041Z,100374.76
2019-01-11T19:34:11.740Z,100380.22
2019-01-11T19:36:42.439Z,100380.21
2019-01-11T19:39:14.305Z,100381.42
2019-01-11T19:41:45.852Z,100382.09
2019-01-11T19:44:17.623Z,100376.68
2019-01-11T19:46:49.348Z,100382.26
2019-01-11T19:49:21.306Z,100382.26
2019-01-11T19:51:52.833Z,100393.64
2019-01-11T19:54:24.580Z,100385.01
2019-01-11T19:56:56.301Z,100367.02
2019-01-11T19:59:27.838Z,100367.02
2019-01-11T20:01:59.594Z,100369.39
2019-01-11T20:04:31.399Z,100353.62
2019-01-11T20:07:03.280Z,100353.62
2019-01-11T20:09:34.886Z,100371.94
2019-01-11T20:12:06.745Z,100375.66
2019-01-11T20:14:37.487Z,100376.70
2019-01-11T20:17:14.088Z,100383.31
2019-01-11T20:19:42.772Z,100377.37
2019-01-11T20:22:13.475Z,100376.85
2019-01-11T20:24:45.782Z,100381.43
2019-01-11T20:27:16.455Z,100387.89
2019-01-11T20:29:48.305Z,100389.92
2019-01-11T20:32:19.841Z,100390.92
2019-01-11T20:34:51.745Z,100391.12
2019-01-11T20:37:29.124Z,100387.88
2019-01-11T20:40:01.032Z,100386.70
2019-01-11T20:42:32.770Z,100388.58
2019-01-11T20:45:03.502Z,100393.30
2019-01-11T20:47:35.293Z,100391.96
2019-01-11T20:50:09.868Z,100385.01
2019-01-11T20:52:41.397Z,100385.68
2019-01-11T20:55:13.306Z,100390.27
2019-01-11T20:57:44.864Z,100392.30
2019-01-11T21:00:33.371Z,100395.33
2019-01-11T21:03:08.286Z,100395.34
2019-01-11T21:05:40.302Z,100403.98
2019-01-11T21:08:11.864Z,100406.02
2019-01-11T21:10:43.433Z,100399.58
2019-01-11T21:13:15.302Z,100406.20
2019-01-11T21:15:47.300Z,100409.76
2019-01-11T21:18:19.304Z,100404.83
2019-01-11T21:20:50.980Z,100407.89
2019-01-11T21:23:22.782Z,100407.55
2019-01-11T21:25:54.750Z,100405.34
2019-01-11T21:28:25.481Z,100410.95
2019-01-11T21:30:57.717Z,100409.24
2019-01-11T21:33:29.384Z,100404.17
2019-01-11T21:36:01.068Z,100407.88
2019-01-11T21:38:32.770Z,100401.95
2019-01-11T21:41:04.369Z,100407.89
2019-01-11T21:43:36.057Z,100406.89
2019-01-11T21:46:07.757Z,100399.77
2019-01-11T21:48:38.944Z,100398.89
2019-01-11T21:51:10.749Z,100393.14
2019-01-11T21:53:41.439Z,100392.63
2019-01-11T21:56:13.058Z,100390.25
2019-01-11T21:58:44.695Z,100392.30
2019-01-11T22:01:15.446Z,100396.69
2019-01-11T22:03:47.579Z,100392.30
2019-01-11T22:06:19.365Z,100387.19
2019-01-11T22:08:51.015Z,100387.19
2019-01-11T22:11:22.787Z,100393.32
2019-01-11T22:13:54.769Z,100395.86
2019-01-11T22:16:25.467Z,100395.01
2019-01-11T22:18:57.293Z,100393.97
2019-01-11T22:21:28.861Z,100404.16
2019-01-11T22:24:03.167Z,100400.44
2019-01-11T22:26:34.062Z,100401.62
2019-01-11T22:29:05.846Z,100399.42
2019-01-11T22:31:37.596Z,100394.83
2019-01-11T22:34:09.376Z,100386.85
2019-01-11T22:36:41.016Z,100386.85
2019-01-11T22:39:12.731Z,100400.24
2019-01-11T22:41:43.507Z,100405.66
2019-01-11T22:44:15.297Z,100413.67
2019-01-11T22:46:46.846Z,100414.31
2019-01-11T22:49:18.405Z,100415.01
2019-01-11T22:51:50.247Z,100414.34
2019-01-11T22:54:21.797Z,100414.34
2019-01-11T22:56:53.549Z,100407.02
2019-01-11T22:59:25.298Z,100412.30
2019-01-11T23:02:42.002Z,100408.73
2019-01-11T23:05:16.297Z,100410.95
2019-01-11T23:07:58.785Z,100409.41
2019-01-11T23:11:30.296Z,100410.77
2019-01-11T23:14:01.893Z,100403.12
2019-01-11T23:17:29.620Z,100412.80
2019-01-11T23:20:01.721Z,100390.19
2019-01-11T23:22:32.455Z,100390.19
2019-01-11T23:25:04.307Z,100407.73
2019-01-11T23:27:36.260Z,100411.95
2019-01-11T23:30:16.720Z,100413.14
2019-01-11T23:32:47.435Z,100406.87
2019-01-11T23:35:19.065Z,100412.96
2019-01-11T23:37:50.783Z,100411.09
2019-01-11T23:40:21.488Z,100408.22
2019-01-11T23:42:53.300Z,100416.87
2019-01-11T23:45:24.870Z,100410.27
2019-01-11T23:47:56.402Z,100411.61
2019-01-11T23:50:28.327Z,100411.27
2019-01-11T23:52:59.835Z,100411.95
2019-01-11T23:55:31.749Z,100414.66
2019-01-11T23:58:03.542Z,100414.14
